Time;durP1;ratioP1;P1;durP2;ratioP2;P2;SDS_P1;SDS_P2;PMS_P1;PMS_P2;Temp;Humidity;BMP_temperature;BMP_pressure;BME280_temperature;BME280_humidity;BME280_pressure;Samples;Min_cycle;Max_cycle;Signal;HPM_P1;HPM_P2
2023/12/21 00:00:15;;;;;;;1.25;1.00;;;;;;;;;;5031482;28;20693;-77
2023/12/21 00:02:40;;;;;;;1.17;1.08;;;;;;;;;;5025581;28;20025;-77
2023/12/21 00:05:05;;;;;;;1.10;1.00;;;;;;;;;;5025565;28;20034;-77
2023/12/21 00:07:31;;;;;;;1.48;0.98;;;;;;;;;;5026316;28;20467;-77
2023/12/21 00:09:56;;;;;;;1.65;0.88;;;;;;;;;;5030763;28;20040;-77
2023/12/21 00:12:22;;;;;;;1.77;1.50;;;;;;;;;;5030985;28;20453;-77
2023/12/21 00:14:47;;;;;;;2.63;0.98;;;;;;;;;;5029181;28;20405;-77
2023/12/21 00:17:13;;;;;;;3.88;0.98;;;;;;;;;;5022020;28;20608;-77
2023/12/21 00:19:38;;;;;;;1.88;0.95;;;;;;;;;;5029900;28;20468;-77
2023/12/21 00:22:03;;;;;;;0.70;0.70;;;;;;;;;;5038506;28;20033;-77
2023/12/21 00:24:28;;;;;;;0.90;0.90;;;;;;;;;;5031381;28;20100;-76
2023/12/21 00:26:54;;;;;;;2.35;0.77;;;;;;;;;;5030674;28;20509;-76
2023/12/21 00:29:19;;;;;;;1.27;0.90;;;;;;;;;;5030357;28;20490;-78
2023/12/21 00:31:44;;;;;;;0.90;0.80;;;;;;;;;;5035705;28;20033;-77
2023/12/21 00:34:09;;;;;;;0.85;0.85;;;;;;;;;;5023138;28;20033;-77
2023/12/21 00:36:35;;;;;;;0.80;0.80;;;;;;;;;;5031444;28;20037;-77
2023/12/21 00:39:00;;;;;;;1.08;0.70;;;;;;;;;;5031996;28;20025;-78
2023/12/21 00:41:27;;;;;;;1.23;1.00;;;;;;;;;;5029973;28;20567;-78
2023/12/21 00:43:52;;;;;;;0.80;0.80;;;;;;;;;;5030846;28;20044;-78
2023/12/21 00:46:17;;;;;;;1.33;1.08;;;;;;;;;;5030750;28;20025;-78
2023/12/21 00:48:43;;;;;;;1.05;1.05;;;;;;;;;;5030635;28;20453;-78
2023/12/21 00:51:09;;;;;;;0.98;0.95;;;;;;;;;;5021625;28;20025;-77
2023/12/21 00:53:34;;;;;;;0.85;0.85;;;;;;;;;;5027453;28;20056;-77
2023/12/21 00:55:59;;;;;;;0.88;0.88;;;;;;;;;;5027632;28;20120;-77
2023/12/21 00:58:25;;;;;;;0.77;0.70;;;;;;;;;;5029746;28;20029;-77
2023/12/21 01:00:50;;;;;;;0.90;0.90;;;;;;;;;;5030539;28;20021;-77
2023/12/21 01:03:15;;;;;;;1.13;1.08;;;;;;;;;;5021177;28;20033;-77
2023/12/21 01:05:40;;;;;;;1.83;1.00;;;;;;;;;;5012331;28;20028;-77
2023/12/21 01:08:07;;;;;;;0.90;0.90;;;;;;;;;;5032354;28;20446;-77
2023/12/21 01:10:33;;;;;;;0.90;0.90;;;;;;;;;;5028818;28;20061;-77
2023/12/21 01:12:58;;;;;;;1.10;1.00;;;;;;;;;;5019393;28;20029;-77
2023/12/21 01:15:23;;;;;;;0.90;0.88;;;;;;;;;;5021480;28;20033;-77
2023/12/21 01:17:49;;;;;;;1.58;0.88;;;;;;;;;;5022751;28;20029;-77
2023/12/21 01:20:14;;;;;;;1.10;1.05;;;;;;;;;;5014807;28;20030;-77
2023/12/21 01:22:39;;;;;;;2.38;1.10;;;;;;;;;;5023605;28;20030;-77
2023/12/21 01:25:05;;;;;;;1.20;0.80;;;;;;;;;;5026721;28;20080;-77
2023/12/21 01:27:30;;;;;;;0.80;0.80;;;;;;;;;;5031203;28;20029;-77
2023/12/21 01:29:56;;;;;;;0.85;0.85;;;;;;;;;;5030784;28;20034;-77
2023/12/21 01:32:21;;;;;;;1.30;1.10;;;;;;;;;;5021274;28;20448;-77
2023/12/21 01:34:46;;;;;;;0.93;0.93;;;;;;;;;;5017568;28;20038;-77
2023/12/21 01:37:12;;;;;;;0.98;0.90;;;;;;;;;;5020386;28;20580;-77
2023/12/21 01:39:38;;;;;;;1.83;0.90;;;;;;;;;;5025248;28;20121;-77
2023/12/21 01:42:03;;;;;;;0.85;0.85;;;;;;;;;;5019339;28;20093;-77
2023/12/21 01:44:29;;;;;;;1.38;1.05;;;;;;;;;;5022805;28;20049;-78
2023/12/21 01:46:54;;;;;;;0.90;0.90;;;;;;;;;;5031117;28;20362;-77
2023/12/21 01:49:20;;;;;;;1.85;0.90;;;;;;;;;;5020796;28;20530;-77
2023/12/21 01:51:46;;;;;;;1.90;0.90;;;;;;;;;;5025046;28;20362;-77
2023/12/21 01:54:11;;;;;;;0.80;0.80;;;;;;;;;;5020691;28;20497;-77
2023/12/21 01:56:37;;;;;;;0.80;0.80;;;;;;;;;;5030975;28;20091;-77
2023/12/21 01:59:02;;;;;;;1.17;0.90;;;;;;;;;;5023090;28;20111;-77
2023/12/21 02:01:28;;;;;;;0.65;0.65;;;;;;;;;;5029270;28;20087;-77
2023/12/21 02:03:54;;;;;;;0.60;0.60;;;;;;;;;;5030325;28;20520;-77
2023/12/21 02:06:20;;;;;;;0.60;0.60;;;;;;;;;;5029080;28;20052;-77
2023/12/21 02:08:45;;;;;;;0.77;0.77;;;;;;;;;;5029628;28;20029;-77
2023/12/21 02:11:11;;;;;;;0.70;0.70;;;;;;;;;;5028876;28;20515;-77
2023/12/21 02:13:36;;;;;;;0.70;0.70;;;;;;;;;;5019485;28;20044;-77
2023/12/21 02:16:09;;;;;;;2.30;0.57;;;;;;;;;;5029799;28;20037;-77
2023/12/21 02:18:34;;;;;;;3.70;0.95;;;;;;;;;;5014470;28;20436;-77
2023/12/21 02:21:01;;;;;;;0.60;0.60;;;;;;;;;;5035754;28;20021;-77
2023/12/21 02:23:28;;;;;;;0.70;0.55;;;;;;;;;;5033409;28;20065;-77
2023/12/21 02:25:54;;;;;;;0.50;0.50;;;;;;;;;;5034553;28;20067;-77
2023/12/21 02:28:19;;;;;;;0.95;0.75;;;;;;;;;;5026748;28;20062;-77
2023/12/21 02:30:47;;;;;;;1.75;0.55;;;;;;;;;;5032978;28;20037;-78
2023/12/21 02:33:15;;;;;;;0.50;0.50;;;;;;;;;;5033216;28;20547;-77
2023/12/21 02:35:40;;;;;;;1.63;0.63;;;;;;;;;;5024399;28;20018;-77
2023/12/21 02:38:06;;;;;;;0.65;0.65;;;;;;;;;;5017283;28;20096;-78
2023/12/21 02:40:31;;;;;;;0.40;0.40;;;;;;;;;;5030229;28;20082;-77
2023/12/21 02:42:56;;;;;;;0.43;0.43;;;;;;;;;;5040406;28;20033;-77
2023/12/21 02:45:22;;;;;;;0.63;0.63;;;;;;;;;;5035696;28;20025;-78
2023/12/21 02:47:47;;;;;;;0.60;0.60;;;;;;;;;;5030753;28;20026;-78
2023/12/21 02:50:12;;;;;;;0.55;0.55;;;;;;;;;;5032497;28;20049;-78
2023/12/21 02:52:38;;;;;;;0.47;0.47;;;;;;;;;;5029520;28;20042;-78
2023/12/21 02:55:03;;;;;;;0.60;0.60;;;;;;;;;;5032731;28;20044;-78
2023/12/21 02:57:28;;;;;;;0.40;0.40;;;;;;;;;;5027369;28;20037;-78
2023/12/21 02:59:54;;;;;;;0.40;0.40;;;;;;;;;;5024245;28;20037;-78
2023/12/21 03:02:19;;;;;;;0.40;0.40;;;;;;;;;;5036243;28;20042;-78
2023/12/21 03:04:44;;;;;;;0.35;0.35;;;;;;;;;;5023447;28;20785;-78
2023/12/21 03:07:10;;;;;;;0.57;0.57;;;;;;;;;;5019470;28;20044;-78
2023/12/21 03:09:35;;;;;;;0.50;0.50;;;;;;;;;;5032833;28;20549;-78
2023/12/21 03:12:00;;;;;;;0.28;0.20;;;;;;;;;;5028925;28;20041;-78
2023/12/21 03:14:25;;;;;;;0.93;0.60;;;;;;;;;;5033042;28;20034;-78
2023/12/21 03:16:51;;;;;;;0.40;0.40;;;;;;;;;;5032903;28;20684;-77
2023/12/21 03:19:16;;;;;;;0.40;0.40;;;;;;;;;;5033532;28;20073;-78
2023/12/21 03:21:41;;;;;;;0.63;0.63;;;;;;;;;;5031272;28;20034;-78
2023/12/21 03:24:07;;;;;;;0.30;0.30;;;;;;;;;;5023316;28;20298;-78
2023/12/21 03:26:32;;;;;;;0.50;0.50;;;;;;;;;;5027494;28;20022;-78
2023/12/21 03:28:57;;;;;;;0.45;0.45;;;;;;;;;;5022347;28;20379;-77
2023/12/21 03:31:23;;;;;;;0.50;0.50;;;;;;;;;;5030945;28;20044;-78
2023/12/21 03:33:48;;;;;;;0.45;0.45;;;;;;;;;;5024124;28;20454;-77
2023/12/21 03:36:13;;;;;;;0.40;0.40;;;;;;;;;;5024418;28;20040;-77
2023/12/21 03:38:39;;;;;;;0.57;0.57;;;;;;;;;;5030943;28;20028;-77
2023/12/21 03:41:04;;;;;;;0.50;0.50;;;;;;;;;;5017555;28;20061;-77
2023/12/21 03:43:29;;;;;;;0.40;0.40;;;;;;;;;;5032332;28;20068;-77
2023/12/21 03:45:54;;;;;;;0.43;0.43;;;;;;;;;;5023079;28;20037;-77
2023/12/21 03:48:20;;;;;;;0.55;0.40;;;;;;;;;;5024198;28;20490;-77
2023/12/21 03:50:45;;;;;;;0.50;0.50;;;;;;;;;;5029733;28;20452;-77
2023/12/21 03:53:11;;;;;;;0.50;0.50;;;;;;;;;;5015632;28;20506;-77
2023/12/21 03:55:37;;;;;;;0.38;0.38;;;;;;;;;;5021376;28;20167;-77
2023/12/21 03:58:03;;;;;;;0.45;0.45;;;;;;;;;;5030879;28;20045;-77
2023/12/21 04:00:28;;;;;;;1.10;0.65;;;;;;;;;;5026272;28;20033;-77
2023/12/21 04:02:54;;;;;;;0.50;0.50;;;;;;;;;;5051123;22;20049;-83
2023/12/21 04:05:19;;;;;;;0.57;0.57;;;;;;;;;;5037710;28;20044;-82
2023/12/21 04:07:44;;;;;;;0.50;0.50;;;;;;;;;;5020096;28;20404;-80
2023/12/21 04:10:10;;;;;;;0.70;0.70;;;;;;;;;;5038085;28;20040;-85
2023/12/21 04:12:35;;;;;;;0.60;0.60;;;;;;;;;;5020601;28;20021;-84
2023/12/21 04:15:01;;;;;;;0.20;0.20;;;;;;;;;;5020328;28;20159;-83
2023/12/21 04:17:27;;;;;;;0.40;0.40;;;;;;;;;;5046486;28;20044;-82
2023/12/21 04:19:52;;;;;;;0.30;0.30;;;;;;;;;;5039365;28;20041;-81
2023/12/21 04:22:17;;;;;;;0.30;0.30;;;;;;;;;;5058006;28;20127;-81
2023/12/21 04:24:44;;;;;;;0.40;0.40;;;;;;;;;;5058073;28;20033;-84
2023/12/21 04:27:09;;;;;;;0.45;0.45;;;;;;;;;;5057890;28;20103;-84
2023/12/21 04:29:34;;;;;;;0.35;0.35;;;;;;;;;;5040974;28;20075;-79
2023/12/21 04:32:00;;;;;;;0.55;0.50;;;;;;;;;;5058173;28;20128;-82
2023/12/21 04:34:25;;;;;;;0.50;0.50;;;;;;;;;;5057821;28;20036;-82
2023/12/21 04:36:50;;;;;;;0.43;0.43;;;;;;;;;;5039971;28;20025;-82
2023/12/21 04:39:16;;;;;;;0.50;0.50;;;;;;;;;;5057698;28;20024;-83
2023/12/21 04:41:41;;;;;;;0.40;0.30;;;;;;;;;;5058986;28;20032;-81
2023/12/21 04:44:07;;;;;;;0.43;0.43;;;;;;;;;;5056274;28;20033;-84
2023/12/21 04:46:32;;;;;;;0.40;0.40;;;;;;;;;;5039212;28;20040;-81
2023/12/21 04:48:58;;;;;;;0.52;0.50;;;;;;;;;;5040941;28;20404;-83
2023/12/21 04:51:23;;;;;;;0.38;0.38;;;;;;;;;;5039708;28;20044;-81
2023/12/21 04:53:48;;;;;;;0.50;0.50;;;;;;;;;;5054632;28;20035;-84
2023/12/21 04:56:14;;;;;;;0.28;0.28;;;;;;;;;;5019021;28;20468;-84
2023/12/21 04:58:40;;;;;;;0.35;0.35;;;;;;;;;;5037267;28;20040;-83
2023/12/21 05:01:06;;;;;;;0.40;0.40;;;;;;;;;;5036925;28;20074;-84
2023/12/21 05:03:32;;;;;;;0.88;0.50;;;;;;;;;;5037042;28;20048;-84
2023/12/21 05:05:57;;;;;;;0.45;0.45;;;;;;;;;;5044529;28;20025;-82
2023/12/21 05:08:22;;;;;;;0.50;0.50;;;;;;;;;;5056497;28;20033;-83
2023/12/21 05:10:47;;;;;;;0.50;0.50;;;;;;;;;;5037975;28;20106;-84
2023/12/21 05:13:13;;;;;;;0.30;0.30;;;;;;;;;;5037675;28;20523;-83
2023/12/21 05:15:38;;;;;;;0.38;0.38;;;;;;;;;;5037509;28;20400;-83
2023/12/21 05:18:04;;;;;;;0.45;0.45;;;;;;;;;;5037629;28;20067;-83
2023/12/21 05:20:30;;;;;;;0.93;0.50;;;;;;;;;;5038406;28;20115;-83
2023/12/21 05:22:55;;;;;;;0.52;0.47;;;;;;;;;;5038164;28;20053;-81
2023/12/21 05:25:20;;;;;;;0.40;0.40;;;;;;;;;;5056232;28;20059;-81
2023/12/21 05:27:46;;;;;;;0.40;0.40;;;;;;;;;;5036565;28;20033;-83
2023/12/21 05:30:11;;;;;;;0.40;0.30;;;;;;;;;;5018292;28;20025;-85
2023/12/21 05:32:37;;;;;;;0.50;0.50;;;;;;;;;;5019864;28;20520;-82
2023/12/21 05:35:03;;;;;;;0.35;0.35;;;;;;;;;;5018664;28;20576;-83
2023/12/21 05:37:29;;;;;;;4.03;0.40;;;;;;;;;;5017757;28;20683;-83
2023/12/21 05:39:54;;;;;;;0.30;0.30;;;;;;;;;;5055760;28;20029;-83
2023/12/21 05:42:19;;;;;;;0.50;0.50;;;;;;;;;;5056028;28;20448;-83
2023/12/21 05:44:45;;;;;;;0.40;0.40;;;;;;;;;;5038963;28;20025;-83
2023/12/21 05:47:10;;;;;;;0.30;0.30;;;;;;;;;;5054904;28;20025;-82
2023/12/21 05:49:35;;;;;;;1.20;0.52;;;;;;;;;;5038232;28;20067;-80
2023/12/21 05:52:01;;;;;;;0.40;0.40;;;;;;;;;;5057279;28;20048;-83
2023/12/21 05:54:27;;;;;;;0.82;0.35;;;;;;;;;;5055116;28;20033;-83
2023/12/21 05:56:52;;;;;;;0.40;0.40;;;;;;;;;;5056530;28;20035;-84
2023/12/21 05:59:18;;;;;;;0.30;0.30;;;;;;;;;;5056178;28;20033;-83
2023/12/21 06:01:45;;;;;;;0.30;0.30;;;;;;;;;;5019859;28;20047;-83
2023/12/21 06:04:10;;;;;;;0.30;0.30;;;;;;;;;;5048973;28;20033;-82
2023/12/21 06:06:36;;;;;;;0.30;0.30;;;;;;;;;;5020726;28;20087;-82
2023/12/21 06:09:02;;;;;;;0.40;0.40;;;;;;;;;;5046585;28;20111;-82
2023/12/21 06:11:28;;;;;;;1.15;0.30;;;;;;;;;;5055679;28;20094;-81
2023/12/21 06:13:53;;;;;;;2.25;0.50;;;;;;;;;;5055299;28;20037;-81
2023/12/21 06:16:19;;;;;;;0.30;0.30;;;;;;;;;;5061221;28;20404;-80
2023/12/21 06:18:45;;;;;;;0.30;0.30;;;;;;;;;;5046769;28;20399;-84
2023/12/21 06:21:10;;;;;;;0.20;0.20;;;;;;;;;;5036090;28;20028;-84
2023/12/21 06:23:36;;;;;;;0.40;0.40;;;;;;;;;;5019899;28;20025;-83
2023/12/21 06:26:01;;;;;;;0.40;0.40;;;;;;;;;;5018592;28;20030;-83
2023/12/21 06:28:26;;;;;;;0.30;0.30;;;;;;;;;;5036264;28;20460;-83
2023/12/21 06:30:52;;;;;;;0.35;0.35;;;;;;;;;;5036175;28;20038;-83
2023/12/21 06:33:17;;;;;;;0.32;0.32;;;;;;;;;;5018703;28;20025;-82
2023/12/21 06:35:42;;;;;;;0.55;0.45;;;;;;;;;;5046548;28;20028;-82
2023/12/21 06:38:07;;;;;;;0.38;0.38;;;;;;;;;;5055944;28;20102;-81
2023/12/21 06:40:33;;;;;;;0.40;0.40;;;;;;;;;;5057120;28;20033;-83
2023/12/21 06:42:58;;;;;;;0.40;0.40;;;;;;;;;;5056328;28;20036;-81
2023/12/21 06:45:23;;;;;;;0.30;0.30;;;;;;;;;;5037809;28;20029;-82
2023/12/21 06:47:49;;;;;;;0.40;0.40;;;;;;;;;;5056895;28;20025;-82
2023/12/21 06:50:14;;;;;;;0.50;0.50;;;;;;;;;;5042906;28;20115;-82
2023/12/21 06:52:39;;;;;;;0.40;0.40;;;;;;;;;;5018882;28;20061;-81
2023/12/21 06:55:05;;;;;;;0.30;0.30;;;;;;;;;;5018331;28;20095;-83
2023/12/21 06:57:31;;;;;;;0.38;0.38;;;;;;;;;;5044054;28;20037;-81
2023/12/21 06:59:56;;;;;;;0.30;0.30;;;;;;;;;;5035880;28;20041;-81
2023/12/21 07:02:21;;;;;;;0.38;0.38;;;;;;;;;;5021920;28;20520;-81
2023/12/21 07:04:47;;;;;;;0.75;0.30;;;;;;;;;;5033732;28;20025;-79
2023/12/21 07:07:13;;;;;;;0.30;0.30;;;;;;;;;;5020916;28;20045;-83
2023/12/21 07:09:38;;;;;;;0.30;0.30;;;;;;;;;;5023183;28;20033;-84
2023/12/21 07:12:05;;;;;;;0.22;0.22;;;;;;;;;;5052124;28;20031;-83
2023/12/21 07:14:31;;;;;;;0.85;0.50;;;;;;;;;;5062149;28;20032;-82
2023/12/21 07:16:56;;;;;;;1.60;0.50;;;;;;;;;;5042605;28;20037;-83
2023/12/21 07:19:21;;;;;;;0.52;0.30;;;;;;;;;;5061106;28;20112;-82
2023/12/21 07:21:46;;;;;;;0.40;0.40;;;;;;;;;;5028769;28;20026;-84
2023/12/21 07:24:12;;;;;;;0.30;0.30;;;;;;;;;;5022060;28;20022;-84
2023/12/21 07:26:37;;;;;;;0.35;0.35;;;;;;;;;;5023438;28;20380;-82
2023/12/21 07:29:02;;;;;;;0.40;0.40;;;;;;;;;;5017779;28;20045;-82
2023/12/21 07:31:28;;;;;;;0.30;0.30;;;;;;;;;;5016511;28;20117;-81
2023/12/21 07:33:53;;;;;;;0.40;0.40;;;;;;;;;;5049583;28;20033;-81
2023/12/21 07:36:18;;;;;;;0.50;0.50;;;;;;;;;;5022185;28;20026;-81
2023/12/21 07:38:44;;;;;;;0.32;0.32;;;;;;;;;;5023486;28;20021;-84
2023/12/21 07:41:10;;;;;;;0.30;0.30;;;;;;;;;;5031104;28;20113;-80
2023/12/21 07:43:37;;;;;;;0.40;0.40;;;;;;;;;;5040115;28;20037;-80
2023/12/21 07:46:02;;;;;;;0.40;0.40;;;;;;;;;;5051192;28;20044;-80
2023/12/21 07:48:28;;;;;;;2.30;0.40;;;;;;;;;;5049349;28;20375;-82
2023/12/21 07:50:53;;;;;;;0.30;0.30;;;;;;;;;;5028114;28;20092;-82
2023/12/21 07:53:18;;;;;;;4.38;0.60;;;;;;;;;;5020258;28;20053;-83
2023/12/21 07:55:43;;;;;;;0.30;0.30;;;;;;;;;;5007361;28;20033;-83
2023/12/21 07:58:09;;;;;;;0.50;0.50;;;;;;;;;;5002944;28;20528;-83
2023/12/21 08:00:34;;;;;;;0.40;0.40;;;;;;;;;;5020635;28;20034;-83
2023/12/21 08:02:59;;;;;;;12.20;1.33;;;;;;;;;;5004108;28;20092;-83
2023/12/21 08:05:24;;;;;;;0.30;0.30;;;;;;;;;;5003687;28;20092;-83
2023/12/21 08:07:50;;;;;;;0.45;0.32;;;;;;;;;;5004938;28;20025;-82
2023/12/21 08:10:16;;;;;;;0.30;0.30;;;;;;;;;;5015840;28;20108;-83
2023/12/21 08:12:42;;;;;;;0.40;0.40;;;;;;;;;;5039819;28;20517;-80
2023/12/21 08:15:09;;;;;;;1.27;0.47;;;;;;;;;;5003144;28;20039;-83
2023/12/21 08:17:35;;;;;;;0.20;0.20;;;;;;;;;;5020886;28;20037;-83
2023/12/21 08:20:01;;;;;;;0.40;0.40;;;;;;;;;;5020353;28;20049;-83
2023/12/21 08:22:26;;;;;;;0.95;0.85;;;;;;;;;;5002353;28;20045;-80
2023/12/21 08:24:52;;;;;;;0.55;0.30;;;;;;;;;;5020175;28;20089;-82
2023/12/21 08:27:19;;;;;;;0.38;0.35;;;;;;;;;;5002175;28;20041;-82
2023/12/21 08:29:44;;;;;;;0.38;0.38;;;;;;;;;;5048993;28;20059;-81
2023/12/21 08:32:09;;;;;;;0.30;0.30;;;;;;;;;;5047998;28;20037;-83
2023/12/21 08:34:35;;;;;;;0.30;0.30;;;;;;;;;;5039192;28;20048;-82
2023/12/21 08:37:00;;;;;;;0.20;0.20;;;;;;;;;;5038960;28;20057;-82
2023/12/21 08:39:26;;;;;;;0.45;0.45;;;;;;;;;;5039771;28;20033;-82
2023/12/21 08:41:51;;;;;;;2.10;0.60;;;;;;;;;;5039230;28;20021;-82
2023/12/21 08:44:17;;;;;;;0.38;0.38;;;;;;;;;;5021403;28;20022;-82
2023/12/21 08:46:43;;;;;;;0.40;0.40;;;;;;;;;;5039272;28;20061;-80
2023/12/21 08:49:12;;;;;;;0.30;0.30;;;;;;;;;;5040699;28;20132;-81
2023/12/21 08:51:38;;;;;;;0.20;0.20;;;;;;;;;;5044917;28;20086;-80
2023/12/21 08:54:05;;;;;;;0.38;0.38;;;;;;;;;;5049803;28;20030;-80
2023/12/21 08:56:31;;;;;;;0.30;0.30;;;;;;;;;;5023768;28;20056;-81
2023/12/21 08:58:56;;;;;;;0.32;0.32;;;;;;;;;;5039288;28;20029;-84
2023/12/21 09:01:22;;;;;;;0.40;0.40;;;;;;;;;;5039229;28;20103;-80
2023/12/21 09:03:47;;;;;;;0.30;0.30;;;;;;;;;;5038023;28;20029;-81
2023/12/21 09:06:12;;;;;;;0.38;0.38;;;;;;;;;;5021059;28;20033;-81
2023/12/21 09:08:38;;;;;;;0.35;0.32;;;;;;;;;;5044059;28;20032;-82
2023/12/21 09:11:04;;;;;;;0.30;0.30;;;;;;;;;;5038377;28;20044;-83
2023/12/21 09:13:29;;;;;;;0.30;0.30;;;;;;;;;;5053093;28;20029;-83
2023/12/21 09:15:55;;;;;;;0.30;0.30;;;;;;;;;;5058102;28;20031;-81
2023/12/21 09:18:20;;;;;;;0.43;0.43;;;;;;;;;;5058113;28;20496;-81
2023/12/21 09:20:45;;;;;;;0.30;0.30;;;;;;;;;;5058812;28;20028;-81
2023/12/21 09:23:12;;;;;;;0.52;0.50;;;;;;;;;;5046194;28;20037;-81
2023/12/21 09:25:38;;;;;;;0.30;0.30;;;;;;;;;;5038642;28;20049;-81
2023/12/21 09:28:03;;;;;;;0.50;0.50;;;;;;;;;;5020181;28;20045;-81
2023/12/21 09:30:30;;;;;;;0.40;0.40;;;;;;;;;;5019744;28;20026;-81
2023/12/21 09:32:56;;;;;;;0.30;0.30;;;;;;;;;;5020958;28;20021;-81
2023/12/21 09:35:21;;;;;;;2.60;0.47;;;;;;;;;;5037411;28;20037;-81
2023/12/21 09:37:47;;;;;;;1.05;0.50;;;;;;;;;;5037433;28;20049;-81
2023/12/21 09:40:13;;;;;;;0.70;0.40;;;;;;;;;;5037916;28;20041;-83
2023/12/21 09:42:44;;;;;;;0.40;0.40;;;;;;;;;;5044506;28;20025;-80
2023/12/21 09:45:11;;;;;;;0.93;0.40;;;;;;;;;;5038844;28;20076;-82
2023/12/21 09:47:39;;;;;;;0.40;0.40;;;;;;;;;;5057708;28;20021;-82
2023/12/21 09:50:06;;;;;;;0.40;0.40;;;;;;;;;;5056774;28;20408;-82
2023/12/21 09:52:33;;;;;;;0.50;0.50;;;;;;;;;;5056398;28;20036;-82
2023/12/21 09:55:00;;;;;;;0.40;0.40;;;;;;;;;;5046581;28;20032;-82
2023/12/21 09:57:25;;;;;;;0.43;0.43;;;;;;;;;;5018696;28;20099;-81
2023/12/21 09:59:54;;;;;;;0.40;0.40;;;;;;;;;;5036817;28;20026;-82
2023/12/21 10:02:20;;;;;;;0.40;0.40;;;;;;;;;;5028719;28;20044;-81
2023/12/21 10:04:45;;;;;;;0.40;0.40;;;;;;;;;;5047901;22;20499;-77
2023/12/21 10:07:11;;;;;;;0.60;0.40;;;;;;;;;;5026762;28;20117;-77
2023/12/21 10:09:37;;;;;;;0.40;0.40;;;;;;;;;;5010509;28;20046;-77
2023/12/21 10:12:03;;;;;;;0.40;0.38;;;;;;;;;;5013355;28;20104;-77
2023/12/21 10:14:31;;;;;;;0.30;0.30;;;;;;;;;;5024831;28;20046;-77
2023/12/21 10:16:56;;;;;;;0.30;0.30;;;;;;;;;;5010379;28;20042;-77
2023/12/21 10:19:22;;;;;;;0.50;0.50;;;;;;;;;;5010496;28;20030;-77
2023/12/21 10:21:47;;;;;;;0.50;0.50;;;;;;;;;;5010436;28;20501;-77
2023/12/21 10:24:13;;;;;;;0.30;0.30;;;;;;;;;;4992669;28;20022;-77
2023/12/21 10:26:45;;;;;;;0.68;0.50;;;;;;;;;;5010765;28;20046;-78
2023/12/21 10:29:15;;;;;;;0.95;0.60;;;;;;;;;;5029763;28;20041;-77
2023/12/21 10:31:49;;;;;;;0.55;0.50;;;;;;;;;;5029264;28;20037;-77
2023/12/21 10:34:15;;;;;;;0.40;0.40;;;;;;;;;;5029946;28;20034;-77
2023/12/21 10:36:42;;;;;;;0.40;0.40;;;;;;;;;;5016442;28;20479;-77
2023/12/21 10:39:09;;;;;;;0.32;0.32;;;;;;;;;;5010699;28;20393;-77
2023/12/21 10:41:35;;;;;;;0.30;0.30;;;;;;;;;;5017706;28;20025;-78
2023/12/21 10:44:01;;;;;;;0.50;0.50;;;;;;;;;;5000449;28;20433;-77
2023/12/21 10:46:32;;;;;;;0.60;0.60;;;;;;;;;;5033867;28;20053;-77
2023/12/21 10:49:01;;;;;;;0.50;0.50;;;;;;;;;;5033874;28;20043;-77
2023/12/21 10:51:35;;;;;;;0.40;0.40;;;;;;;;;;5028298;28;20029;-77
2023/12/21 10:54:02;;;;;;;0.47;0.47;;;;;;;;;;5014361;28;20018;-78
2023/12/21 10:56:28;;;;;;;0.40;0.40;;;;;;;;;;4995906;28;20042;-77
2023/12/21 10:58:55;;;;;;;0.50;0.50;;;;;;;;;;5013342;28;20382;-77
2023/12/21 11:01:22;;;;;;;1.60;0.50;;;;;;;;;;5030487;28;20056;-77
2023/12/21 11:03:49;;;;;;;0.98;0.70;;;;;;;;;;5032985;28;20033;-77
2023/12/21 11:06:19;;;;;;;0.60;0.60;;;;;;;;;;5031477;28;20062;-78
2023/12/21 11:08:44;;;;;;;0.60;0.60;;;;;;;;;;5014135;28;20109;-77
2023/12/21 11:11:22;;;;;;;4.68;0.75;;;;;;;;;;5013127;28;20117;-77
2023/12/21 11:13:52;;;;;;;0.40;0.40;;;;;;;;;;5013359;28;20061;-77
2023/12/21 11:16:22;;;;;;;0.35;0.35;;;;;;;;;;5013005;28;20042;-77
2023/12/21 11:18:48;;;;;;;0.50;0.50;;;;;;;;;;5027632;28;20079;-78
2023/12/21 11:21:14;;;;;;;0.50;0.50;;;;;;;;;;5013490;28;20034;-78
2023/12/21 11:23:41;;;;;;;0.57;0.57;;;;;;;;;;5026840;28;20025;-77
2023/12/21 11:26:07;;;;;;;1.67;0.52;;;;;;;;;;5019198;28;20033;-77
2023/12/21 11:28:34;;;;;;;0.50;0.50;;;;;;;;;;5012942;28;20506;-77
2023/12/21 11:31:11;;;;;;;0.40;0.40;;;;;;;;;;5013827;28;20033;-77
2023/12/21 11:33:37;;;;;;;1.10;0.60;;;;;;;;;;5012436;28;20030;-77
2023/12/21 11:36:03;;;;;;;0.30;0.30;;;;;;;;;;5020938;28;20024;-77
2023/12/21 11:38:51;;;;;;;0.50;0.50;;;;;;;;;;5014724;28;20099;-77
2023/12/21 11:41:17;;;;;;;0.50;0.50;;;;;;;;;;5032238;28;20033;-77
2023/12/21 11:44:02;;;;;;;0.52;0.52;;;;;;;;;;5017719;28;20122;-77
2023/12/21 11:46:28;;;;;;;1.65;0.55;;;;;;;;;;4995691;28;20034;-77
2023/12/21 11:48:53;;;;;;;0.50;0.50;;;;;;;;;;5013075;28;20057;-77
2023/12/21 11:51:18;;;;;;;0.50;0.50;;;;;;;;;;5022602;28;20512;-77
2023/12/21 11:53:44;;;;;;;0.30;0.30;;;;;;;;;;5032971;28;20048;-77
2023/12/21 11:56:16;;;;;;;0.32;0.32;;;;;;;;;;5032217;28;20041;-77
2023/12/21 11:58:41;;;;;;;0.65;0.40;;;;;;;;;;5025806;28;20045;-77
2023/12/21 12:01:07;;;;;;;0.63;0.47;;;;;;;;;;5012841;28;20034;-75
2023/12/21 12:03:33;;;;;;;1.00;0.60;;;;;;;;;;5012735;28;20084;-76
2023/12/21 12:05:59;;;;;;;0.52;0.50;;;;;;;;;;5012876;28;20034;-76
2023/12/21 12:08:25;;;;;;;0.50;0.50;;;;;;;;;;5012637;28;20152;-76
2023/12/21 12:10:55;;;;;;;1.20;0.40;;;;;;;;;;5012832;28;20030;-75
2023/12/21 12:13:23;;;;;;;0.77;0.60;;;;;;;;;;5024352;28;20041;-76
2023/12/21 12:15:51;;;;;;;0.55;0.55;;;;;;;;;;5031911;28;20034;-76
2023/12/21 12:18:17;;;;;;;0.50;0.50;;;;;;;;;;5031841;28;20026;-75
2023/12/21 12:20:43;;;;;;;0.30;0.30;;;;;;;;;;5032327;28;20393;-76
2023/12/21 12:23:09;;;;;;;0.43;0.43;;;;;;;;;;5031841;28;20083;-76
2023/12/21 12:25:35;;;;;;;3.00;0.50;;;;;;;;;;5032028;28;20107;-75
2023/12/21 12:28:00;;;;;;;0.40;0.40;;;;;;;;;;5031811;28;20033;-75
2023/12/21 12:30:26;;;;;;;0.47;0.47;;;;;;;;;;5031248;28;20029;-76
2023/12/21 12:32:51;;;;;;;0.40;0.40;;;;;;;;;;5032396;28;20033;-75
2023/12/21 12:35:18;;;;;;;0.40;0.40;;;;;;;;;;5031583;28;20405;-76
2023/12/21 12:37:47;;;;;;;0.40;0.40;;;;;;;;;;5031787;28;20121;-77
2023/12/21 12:40:13;;;;;;;1.33;0.35;;;;;;;;;;5031526;28;20068;-76
2023/12/21 12:42:38;;;;;;;0.40;0.40;;;;;;;;;;5031406;28;20045;-75
2023/12/21 12:45:05;;;;;;;0.40;0.40;;;;;;;;;;5031599;28;20244;-75
2023/12/21 12:47:31;;;;;;;0.40;0.40;;;;;;;;;;5031890;28;20021;-75
2023/12/21 12:49:57;;;;;;;0.40;0.40;;;;;;;;;;5031354;28;20535;-75
2023/12/21 12:52:23;;;;;;;0.43;0.40;;;;;;;;;;5030560;28;20041;-75
2023/12/21 12:54:48;;;;;;;0.40;0.35;;;;;;;;;;5031769;28;20033;-76
2023/12/21 12:57:16;;;;;;;0.30;0.30;;;;;;;;;;5004144;28;20046;-76
2023/12/21 12:59:43;;;;;;;0.28;0.28;;;;;;;;;;5018586;28;20119;-75
2023/12/21 13:02:09;;;;;;;0.47;0.47;;;;;;;;;;5012906;28;20055;-76
2023/12/21 13:04:34;;;;;;;6.95;0.50;;;;;;;;;;5030275;28;20087;-75
2023/12/21 13:06:59;;;;;;;0.30;0.30;;;;;;;;;;5013197;28;20460;-75
2023/12/21 13:09:26;;;;;;;0.43;0.40;;;;;;;;;;5012119;28;20470;-77
2023/12/21 13:11:51;;;;;;;1.15;0.75;;;;;;;;;;5011862;28;20037;-75
2023/12/21 13:14:17;;;;;;;0.43;0.43;;;;;;;;;;5011385;28;20033;-76
2023/12/21 13:16:44;;;;;;;0.63;0.38;;;;;;;;;;4993335;28;20042;-76
2023/12/21 13:19:10;;;;;;;0.30;0.30;;;;;;;;;;5011387;28;20033;-75
2023/12/21 13:21:37;;;;;;;0.77;0.30;;;;;;;;;;5015115;28;20187;-75
2023/12/21 13:24:03;;;;;;;0.40;0.40;;;;;;;;;;5031072;28;20025;-75
2023/12/21 13:26:29;;;;;;;0.38;0.38;;;;;;;;;;5030521;28;20037;-75
2023/12/21 13:28:55;;;;;;;0.50;0.50;;;;;;;;;;5030699;28;20124;-75
2023/12/21 13:31:24;;;;;;;0.43;0.43;;;;;;;;;;5030414;28;20041;-76
2023/12/21 13:33:50;;;;;;;0.45;0.45;;;;;;;;;;5030538;28;20084;-75
2023/12/21 13:36:15;;;;;;;0.25;0.25;;;;;;;;;;5011317;28;20481;-76
2023/12/21 13:38:41;;;;;;;6.97;0.32;;;;;;;;;;4993587;28;20116;-76
2023/12/21 13:41:08;;;;;;;0.35;0.32;;;;;;;;;;5010720;28;20486;-75
2023/12/21 13:43:34;;;;;;;0.40;0.40;;;;;;;;;;5010802;28;20056;-76
2023/12/21 13:46:00;;;;;;;0.45;0.45;;;;;;;;;;5010557;28;20413;-76
2023/12/21 13:48:26;;;;;;;0.40;0.40;;;;;;;;;;5010540;28;20056;-76
2023/12/21 13:50:51;;;;;;;0.38;0.30;;;;;;;;;;5011007;28;20047;-76
2023/12/21 13:53:16;;;;;;;0.38;0.38;;;;;;;;;;5010505;28;20029;-75
2023/12/21 13:55:42;;;;;;;0.32;0.32;;;;;;;;;;5018386;28;20061;-76
2023/12/21 13:58:08;;;;;;;0.45;0.45;;;;;;;;;;5030329;28;20046;-76
2023/12/21 14:00:33;;;;;;;4.43;0.30;;;;;;;;;;5030219;28;20038;-75
2023/12/21 14:02:59;;;;;;;0.30;0.30;;;;;;;;;;5031606;28;20304;-76
2023/12/21 14:05:24;;;;;;;0.43;0.43;;;;;;;;;;5030931;28;20116;-75
2023/12/21 14:07:51;;;;;;;0.32;0.32;;;;;;;;;;5012099;28;20030;-76
2023/12/21 14:10:16;;;;;;;0.30;0.30;;;;;;;;;;5029958;28;20029;-75
2023/12/21 14:12:42;;;;;;;0.40;0.40;;;;;;;;;;5029923;28;20455;-75
2023/12/21 14:15:08;;;;;;;0.40;0.40;;;;;;;;;;5030535;28;20021;-75
2023/12/21 14:17:33;;;;;;;0.40;0.40;;;;;;;;;;5016448;28;20117;-75
2023/12/21 14:19:58;;;;;;;0.52;0.52;;;;;;;;;;5025795;28;20030;-76
2023/12/21 14:22:24;;;;;;;0.50;0.50;;;;;;;;;;5014077;28;20417;-76
2023/12/21 14:24:49;;;;;;;0.93;0.60;;;;;;;;;;4996086;28;20037;-76
2023/12/21 14:27:17;;;;;;;0.47;0.47;;;;;;;;;;5013980;28;20113;-76
2023/12/21 14:29:42;;;;;;;0.55;0.55;;;;;;;;;;4996838;28;20036;-76
2023/12/21 14:32:08;;;;;;;0.80;0.60;;;;;;;;;;5022439;28;20440;-77
2023/12/21 14:34:33;;;;;;;0.60;0.60;;;;;;;;;;5020759;28;20034;-77